Diamond City, Arkansas
Current Conditions -  °F | °C
As of 3:45 PM on Friday 31 Oct 2014 (Local Time) from KBBG Reporting Station
Clear Clear  
Wind Chill: 50°   Ceiling: Unl
Heat Index: 50°   Visibility: 6mi
Dew Point: 19°   Wind: 14mph
Humidity: 30%   Direction: 330°NNW
Pressure: 30.32"   Gusts: 31mph
Location:  36.46°N, 92.92°W
Report Text: KBBG 312045Z 33012G27KT 10KT CLR 10/M07 A3032
Loading
Personal Weather Stations






























Interactive Weather Map
Tropical Storm Tracking
New forecast layout! Learn more

10-Day Weather Forecast

Advertisements
Track Severe Weather on mobile